Time;durP1;ratioP1;P1;durP2;ratioP2;P2;SDS_P1;SDS_P2;PMS_P1;PMS_P2;Temp;Humidity;BMP_temperature;BMP_pressure;BME280_temperature;BME280_humidity;BME280_pressure;Samples;Min_cycle;Max_cycle;Signal;HPM_P1;HPM_P2
2022/05/27 00:01:16;;;;;;;3.00;0.60;;;13.40;99.90;;;;;;4972539;28;20117;-78
2022/05/27 00:03:42;;;;;;;1.92;0.63;;;13.40;99.90;;;;;;4974150;28;20027;-78
2022/05/27 00:06:08;;;;;;;0.40;0.40;;;13.50;99.90;;;;;;4975573;28;20368;-79
2022/05/27 00:08:34;;;;;;;2.10;0.60;;;13.40;99.90;;;;;;4974579;28;20019;-78
2022/05/27 00:11:01;;;;;;;0.60;0.43;;;13.40;99.90;;;;;;4975285;28;20030;-78
2022/05/27 00:13:28;;;;;;;1.70;0.80;;;13.40;99.90;;;;;;4975868;28;20039;-78
2022/05/27 00:15:59;;;;;;;0.40;0.40;;;13.50;99.90;;;;;;4977056;28;20054;-78
2022/05/27 00:18:25;;;;;;;2.08;0.50;;;13.40;99.90;;;;;;4975821;28;20044;-79
2022/05/27 00:21:00;;;;;;;0.57;0.57;;;13.40;99.90;;;;;;4978349;28;20033;-78
2022/05/27 00:23:27;;;;;;;1.33;0.40;;;13.30;99.90;;;;;;4977536;28;20026;-78
2022/05/27 00:25:52;;;;;;;1.25;0.50;;;13.40;99.90;;;;;;4980486;28;20096;-79
2022/05/27 00:28:18;;;;;;;2.22;0.70;;;13.40;99.90;;;;;;4987228;28;20078;-78
2022/05/27 00:30:44;;;;;;;0.75;0.50;;;13.40;99.90;;;;;;4985493;28;20042;-78
2022/05/27 00:33:10;;;;;;;0.40;0.40;;;13.40;99.90;;;;;;4986467;28;20042;-78
2022/05/27 00:35:36;;;;;;;0.30;0.30;;;13.40;99.90;;;;;;4967074;28;20038;-78
2022/05/27 00:38:02;;;;;;;0.80;0.80;;;;;;;;;;4981910;28;20061;-78
2022/05/27 00:40:40;;;;;;;0.57;0.40;;;13.30;99.90;;;;;;4983018;28;20432;-78
2022/05/27 00:43:06;;;;;;;1.45;0.50;;;13.30;99.90;;;;;;4983196;28;20041;-79
2022/05/27 00:45:34;;;;;;;0.50;0.50;;;13.20;99.90;;;;;;4982900;28;20037;-79
2022/05/27 00:48:03;;;;;;;0.32;0.32;;;13.20;99.90;;;;;;4983621;28;20019;-79
2022/05/27 00:50:36;;;;;;;1.30;1.05;;;13.20;99.90;;;;;;4983459;28;20110;-78
2022/05/27 00:53:04;;;;;;;0.43;0.43;;;13.20;99.90;;;;;;4982762;28;20035;-78
2022/05/27 00:55:34;;;;;;;2.73;0.70;;;13.30;99.90;;;;;;4983488;28;20456;-79
2022/05/27 00:58:16;;;;;;;0.40;0.40;;;13.30;99.90;;;;;;4983229;28;20117;-79
2022/05/27 01:00:41;;;;;;;0.95;0.47;;;13.30;99.90;;;;;;4983523;28;20090;-78
2022/05/27 01:03:12;;;;;;;0.30;0.30;;;13.40;99.90;;;;;;4984353;28;20062;-78
2022/05/27 01:05:41;;;;;;;0.40;0.40;;;13.40;99.90;;;;;;4985370;28;20023;-78
2022/05/27 01:08:08;;;;;;;1.10;0.60;;;13.40;99.90;;;;;;4987160;28;20027;-79
2022/05/27 01:11:02;;;;;;;0.45;0.40;;;13.40;99.90;;;;;;4983844;28;20053;-79
2022/05/27 01:13:33;;;;;;;0.40;0.40;;;13.40;99.90;;;;;;4979936;28;20263;-78
2022/05/27 01:16:23;;;;;;;1.38;0.85;;;13.30;99.90;;;;;;4978096;28;20122;-78
2022/05/27 01:21:42;;;;;;;0.40;0.40;;;13.40;99.90;;;;;;4979032;28;20065;-78
2022/05/27 01:24:29;;;;;;;0.32;0.30;;;13.40;99.90;;;;;;4977702;28;20027;-78
2022/05/27 01:26:58;;;;;;;0.40;0.40;;;13.40;99.90;;;;;;4979648;28;20027;-79
2022/05/27 01:29:48;;;;;;;0.38;0.30;;;13.40;99.90;;;;;;4979609;28;20102;-78
2022/05/27 01:32:18;;;;;;;0.50;0.50;;;13.40;99.90;;;;;;4977367;28;20435;-78
2022/05/27 01:35:01;;;;;;;2.05;0.52;;;13.50;99.90;;;;;;4977164;28;20023;-78
2022/05/27 01:38:01;;;;;;;1.17;0.45;;;13.40;99.90;;;;;;4976680;28;20050;-78
2022/05/27 01:40:53;;;;;;;1.23;0.50;;;13.50;99.90;;;;;;4979077;28;20037;-78
2022/05/27 01:43:26;;;;;;;0.60;0.57;;;13.40;99.90;;;;;;4977816;28;20046;-78
2022/05/27 01:46:10;;;;;;;1.48;0.40;;;13.40;99.90;;;;;;4980230;28;20023;-77
2022/05/27 01:48:58;;;;;;;1.05;0.50;;;13.30;99.90;;;;;;4980982;28;20672;-77
2022/05/27 01:51:33;;;;;;;0.75;0.50;;;13.20;99.90;;;;;;4981651;28;20023;-78
2022/05/27 01:54:34;;;;;;;0.30;0.30;;;13.10;99.90;;;;;;4979547;28;20487;-78
2022/05/27 01:57:07;;;;;;;1.83;0.50;;;12.80;99.90;;;;;;4978649;28;20400;-78
2022/05/27 01:59:59;;;;;;;0.40;0.30;;;12.40;99.90;;;;;;4979366;28;20027;-78
2022/05/27 02:02:27;;;;;;;0.73;0.65;;;12.40;99.90;;;;;;4977445;28;20046;-78
2022/05/27 02:05:17;;;;;;;0.60;0.60;;;12.00;99.90;;;;;;4977881;28;20038;-78
2022/05/27 02:07:52;;;;;;;1.67;0.68;;;12.00;99.90;;;;;;4989863;28;20033;-79
2022/05/27 02:10:36;;;;;;;1.27;0.50;;;12.10;99.90;;;;;;4988383;28;20026;-78
2022/05/27 02:13:16;;;;;;;1.35;0.68;;;12.20;99.90;;;;;;4989589;28;20090;-78
2022/05/27 02:15:45;;;;;;;0.77;0.60;;;12.10;99.90;;;;;;4988769;28;20030;-78
2022/05/27 02:18:13;;;;;;;1.75;0.63;;;12.40;99.90;;;;;;4991603;28;20467;-78
2022/05/27 02:20:46;;;;;;;0.50;0.50;;;12.20;99.90;;;;;;4986288;28;20506;-78
2022/05/27 02:23:24;;;;;;;4.97;1.50;;;12.10;99.90;;;;;;4974608;28;20030;-78
2022/05/27 02:25:51;;;;;;;1.35;0.70;;;12.10;99.90;;;;;;4973627;28;20483;-78
2022/05/27 02:28:31;;;;;;;0.95;0.60;;;12.20;99.90;;;;;;4976028;28;20114;-78
2022/05/27 02:30:58;;;;;;;;;;;12.20;99.90;;;;;;4975397;28;20027;-78
2022/05/27 02:36:27;;;;;;;;;;;12.20;99.90;;;;;;4976821;28;20034;-77
2022/05/27 02:38:53;;;;;;;1.27;0.63;;;12.20;99.90;;;;;;4990577;28;19921;-78
2022/05/27 02:41:38;;;;;;;1.23;0.50;;;12.20;99.90;;;;;;4973468;28;20027;-78
2022/05/27 02:44:22;;;;;;;1.05;0.75;;;12.00;99.90;;;;;;4972938;28;20085;-78
2022/05/27 02:46:56;;;;;;;0.68;0.68;;;12.00;99.90;;;;;;4975064;28;20290;-78
2022/05/27 02:49:49;;;;;;;1.63;1.00;;;11.90;99.90;;;;;;4973131;28;20078;-78
2022/05/27 02:52:46;;;;;;;0.65;0.65;;;12.10;99.90;;;;;;4977688;28;20105;-79
2022/05/27 02:55:24;;;;;;;1.15;0.85;;;12.00;99.90;;;;;;4984226;28;20034;-79
2022/05/27 02:57:52;;;;;;;1.88;0.60;;;12.10;99.90;;;;;;4985335;28;20058;-78
2022/05/27 03:00:25;;;;;;;2.00;1.58;;;12.10;99.90;;;;;;4984044;28;20051;-78
2022/05/27 03:02:51;;;;;;;0.93;0.70;;;12.10;99.90;;;;;;4981140;28;20075;-78
2022/05/27 03:05:20;;;;;;;2.20;0.68;;;12.00;99.90;;;;;;4987908;28;20031;-78
2022/05/27 03:08:06;;;;;;;4.78;2.60;;;12.00;99.90;;;;;;4978764;28;20632;-78
2022/05/27 03:10:49;;;;;;;1.45;0.60;;;12.00;99.90;;;;;;4974577;28;20058;-78
2022/05/27 03:13:23;;;;;;;3.70;1.08;;;11.90;99.90;;;;;;4974525;28;20022;-79
2022/05/27 03:15:52;;;;;;;1.13;1.02;;;12.00;99.90;;;;;;4972760;28;20022;-78
2022/05/27 03:18:36;;;;;;;0.45;0.40;;;11.90;99.90;;;;;;4973406;28;20039;-78
2022/05/27 03:21:04;;;;;;;1.30;1.20;;;11.70;99.90;;;;;;4974370;28;20023;-78
2022/05/27 03:23:40;;;;;;;0.77;0.73;;;11.80;99.90;;;;;;4974755;28;20065;-78
2022/05/27 03:26:27;;;;;;;2.45;0.90;;;11.80;99.90;;;;;;4972678;28;20027;-78
2022/05/27 03:29:13;;;;;;;1.17;1.08;;;11.70;99.90;;;;;;4972611;28;20077;-78
2022/05/27 03:32:15;;;;;;;1.60;1.35;;;11.90;99.90;;;;;;4974112;28;20034;-78
2022/05/27 03:34:49;;;;;;;2.75;0.80;;;11.90;99.90;;;;;;4974748;28;20034;-78
2022/05/27 03:37:27;;;;;;;3.13;0.65;;;12.00;99.90;;;;;;4973253;28;20085;-78
2022/05/27 03:40:04;;;;;;;1.50;1.00;;;12.00;99.90;;;;;;4976137;28;20114;-78
2022/05/27 03:42:31;;;;;;;2.47;1.40;;;12.00;99.90;;;;;;4973776;28;20043;-78
2022/05/27 03:45:21;;;;;;;2.60;0.80;;;12.00;99.90;;;;;;4973091;28;20050;-78
2022/05/27 03:47:47;;;;;;;0.90;0.90;;;12.10;99.90;;;;;;4973923;28;20045;-78
2022/05/27 03:50:20;;;;;;;0.57;0.52;;;12.00;99.90;;;;;;4981828;28;20027;-78
2022/05/27 03:52:50;;;;;;;2.35;0.90;;;12.10;99.90;;;;;;4985377;28;20039;-78
2022/05/27 03:55:18;;;;;;;0.73;0.70;;;12.00;99.90;;;;;;4972627;28;20027;-78
2022/05/27 03:57:43;;;;;;;1.73;0.95;;;12.00;99.90;;;;;;4972325;28;20516;-78
2022/05/27 04:00:11;;;;;;;2.53;0.60;;;12.10;99.90;;;;;;4975014;28;20105;-78
2022/05/27 04:02:37;;;;;;;0.98;0.75;;;12.10;99.90;;;;;;4977010;28;20106;-78
2022/05/27 04:05:04;;;;;;;2.13;1.10;;;12.20;99.90;;;;;;4975688;28;20491;-78
2022/05/27 04:07:30;;;;;;;2.97;0.90;;;12.20;99.90;;;;;;4976136;28;20391;-78
2022/05/27 04:09:55;;;;;;;1.25;0.88;;;10.00;99.90;;;;;;4979150;28;20023;-78
2022/05/27 04:12:21;;;;;;;2.35;1.40;;;12.40;99.90;;;;;;4979679;28;20089;-78
2022/05/27 04:14:53;;;;;;;0.98;0.50;;;12.50;99.90;;;;;;4980623;28;20031;-78
2022/05/27 04:17:30;;;;;;;1.25;0.95;;;12.60;99.90;;;;;;4975350;28;20026;-78
2022/05/27 04:20:03;;;;;;;1.48;0.70;;;12.70;99.90;;;;;;4976858;28;20023;-78
2022/05/27 04:22:28;;;;;;;2.10;0.65;;;12.70;99.90;;;;;;4976732;28;20027;-78
2022/05/27 04:24:55;;;;;;;2.05;0.90;;;12.80;99.90;;;;;;4976135;28;20027;-78
2022/05/27 04:27:21;;;;;;;3.08;0.80;;;12.80;99.90;;;;;;4975143;28;20376;-78
2022/05/27 04:29:49;;;;;;;2.20;1.20;;;12.90;99.90;;;;;;4976353;28;20031;-77
2022/05/27 04:32:16;;;;;;;1.98;1.13;;;12.80;99.90;;;;;;4974669;28;20023;-78
2022/05/27 04:34:42;;;;;;;2.78;1.50;;;12.90;99.90;;;;;;4975896;28;20027;-78
2022/05/27 04:37:09;;;;;;;1.13;0.90;;;12.90;99.90;;;;;;4975054;28;20062;-78
2022/05/27 04:39:35;;;;;;;1.10;0.60;;;13.00;99.90;;;;;;4977036;28;20031;-78
2022/05/27 04:42:00;;;;;;;1.27;1.17;;;13.20;99.90;;;;;;4978657;28;20074;-78
2022/05/27 04:44:26;;;;;;;0.68;0.55;;;13.50;99.90;;;;;;4973833;28;20476;-82
2022/05/27 04:46:52;;;;;;;1.17;0.70;;;13.50;99.90;;;;;;4972601;28;20019;-82
2022/05/27 04:52:02;;;;;;;1.33;0.70;;;13.70;99.90;;;;;;4974662;28;20396;-79
2022/05/27 04:54:28;;;;;;;1.08;0.70;;;13.70;99.90;;;;;;4975491;28;20092;-78
2022/05/27 04:56:55;;;;;;;3.30;1.50;;;13.70;99.90;;;;;;4977572;28;20023;-79
2022/05/27 04:59:21;;;;;;;1.33;0.77;;;13.90;99.90;;;;;;4976453;28;20026;-78
2022/05/27 05:01:47;;;;;;;2.30;0.77;;;14.10;99.90;;;;;;4978370;28;20114;-78
2022/05/27 05:04:13;;;;;;;1.17;0.70;;;14.10;99.90;;;;;;4976478;28;20539;-78
2022/05/27 05:06:39;;;;;;;1.88;0.75;;;14.10;99.90;;;;;;4978652;28;20022;-78
2022/05/27 05:09:05;;;;;;;1.15;0.57;;;14.20;99.90;;;;;;4976453;28;20110;-79
2022/05/27 05:11:31;;;;;;;0.70;0.70;;;14.20;99.90;;;;;;4976015;28;20035;-78
2022/05/27 05:13:57;;;;;;;1.17;0.82;;;14.40;99.90;;;;;;4976696;28;20031;-79
2022/05/27 05:16:25;;;;;;;4.40;0.73;;;14.40;99.90;;;;;;4991645;28;20038;-79
2022/05/27 05:18:51;;;;;;;1.60;1.08;;;14.50;99.90;;;;;;4994059;28;20039;-78
2022/05/27 05:21:18;;;;;;;2.92;0.75;;;14.60;99.90;;;;;;4989144;28;20519;-79
2022/05/27 05:23:45;;;;;;;0.60;0.60;;;14.50;99.90;;;;;;4986194;28;20054;-79
2022/05/27 05:26:11;;;;;;;1.23;0.70;;;14.60;99.90;;;;;;4983704;28;20070;-82
2022/05/27 05:28:37;;;;;;;1.55;1.45;;;14.60;99.90;;;;;;4976902;28;20026;-81
2022/05/27 05:31:04;;;;;;;0.70;0.70;;;14.70;99.90;;;;;;4978505;28;20027;-78
2022/05/27 05:33:30;;;;;;;2.95;0.80;;;15.20;99.90;;;;;;4972254;28;20539;-79
2022/05/27 05:35:55;;;;;;;1.45;0.80;;;15.50;99.90;;;;;;4972332;28;20039;-79
2022/05/27 05:38:21;;;;;;;1.58;0.60;;;15.90;99.90;;;;;;4974083;28;20484;-79
2022/05/27 05:40:47;;;;;;;3.38;1.65;;;16.00;99.90;;;;;;4977955;28;20388;-79
2022/05/27 05:43:13;;;;;;;2.45;0.80;;;16.10;99.90;;;;;;4978630;28;20023;-78
2022/05/27 05:45:40;;;;;;;3.53;1.00;;;16.10;99.90;;;;;;4978580;28;20022;-78
2022/05/27 05:48:06;;;;;;;1.60;0.90;;;16.00;99.90;;;;;;4976993;28;20058;-78
2022/05/27 05:50:33;;;;;;;1.52;0.57;;;15.90;99.90;;;;;;4977069;28;20033;-78
2022/05/27 05:52:59;;;;;;;1.90;0.68;;;15.90;99.90;;;;;;4978843;28;20038;-79
2022/05/27 05:55:26;;;;;;;3.30;0.98;;;16.00;99.90;;;;;;4973637;28;20026;-79
2022/05/27 05:57:52;;;;;;;1.45;0.90;;;15.90;99.90;;;;;;4973634;28;20133;-78
2022/05/27 06:00:28;;;;;;;0.65;0.65;;;15.90;99.90;;;;;;4972859;28;20037;-78
2022/05/27 06:02:54;;;;;;;1.17;0.90;;;16.00;99.90;;;;;;4974691;28;20054;-79
2022/05/27 06:05:21;;;;;;;0.65;0.65;;;16.00;99.90;;;;;;4975023;28;20038;-79
2022/05/27 06:07:48;;;;;;;0.77;0.77;;;16.10;99.90;;;;;;4977252;28;20034;-79
2022/05/27 06:10:15;;;;;;;1.13;0.70;;;16.20;99.90;;;;;;4981297;28;20641;-78
2022/05/27 06:12:41;;;;;;;2.72;0.88;;;16.10;99.90;;;;;;4981228;28;20027;-79
2022/05/27 06:15:10;;;;;;;1.23;0.60;;;16.20;99.90;;;;;;4970838;28;20035;-79
2022/05/27 06:17:36;;;;;;;2.70;0.60;;;16.30;99.90;;;;;;4966344;28;20428;-79
2022/05/27 06:20:04;;;;;;;2.00;0.50;;;16.50;99.90;;;;;;4975061;28;20031;-79
2022/05/27 06:22:31;;;;;;;1.40;0.43;;;16.40;99.90;;;;;;4957545;28;20019;-79
2022/05/27 06:25:00;;;;;;;2.40;0.65;;;16.40;99.90;;;;;;4973884;28;20039;-79
2022/05/27 06:27:29;;;;;;;1.50;0.82;;;16.30;99.90;;;;;;4976071;28;20074;-79
2022/05/27 06:35:27;;;;;;;2.03;0.68;;;16.60;99.90;;;;;;4985027;28;20088;-79
2022/05/27 06:37:52;;;;;;;1.42;0.70;;;16.60;99.90;;;;;;4974424;28;20031;-85
2022/05/27 06:40:18;;;;;;;3.17;0.88;;;16.80;99.90;;;;;;4971607;28;20030;-80
2022/05/27 06:42:44;;;;;;;0.50;0.47;;;17.00;99.90;;;;;;4971115;28;20027;-84
2022/05/27 06:45:15;;;;;;;2.55;0.55;;;16.90;99.90;;;;;;4970557;28;20030;-78
2022/05/27 06:47:41;;;;;;;0.95;0.65;;;17.20;99.90;;;;;;4971421;28;20023;-87
2022/05/27 06:50:08;;;;;;;0.60;0.50;;;17.40;99.90;;;;;;4971261;28;20048;-87
2022/05/27 06:52:34;;;;;;;0.43;0.43;;;17.60;99.90;;;;;;5003983;28;20043;-83
2022/05/27 06:55:06;;;;;;;0.93;0.55;;;17.80;99.90;;;;;;4987868;28;20490;-82
2022/05/27 06:57:33;;;;;;;2.42;1.55;;;17.90;99.90;;;;;;5004367;28;20656;-87
2022/05/27 07:00:00;;;;;;;1.17;0.30;;;18.40;99.90;;;;;;4984858;28;20054;-83
2022/05/27 07:02:27;;;;;;;0.73;0.70;;;18.30;99.90;;;;;;4988179;28;20558;-82
2022/05/27 07:04:52;;;;;;;1.30;0.50;;;17.80;99.90;;;;;;4977075;28;20027;-82
2022/05/27 07:07:21;;;;;;;1.90;0.50;;;;;;;;;;4983093;28;20031;-83
2022/05/27 07:09:49;;;;;;;1.67;0.60;;;;;;;;;;4990328;28;20046;-83
2022/05/27 07:12:17;;;;;;;0.40;0.40;;;;;;;;;;4988671;28;20038;-83
2022/05/27 07:14:43;;;;;;;1.50;1.13;;;;;;;;;;4987324;28;20046;-83
2022/05/27 07:17:09;;;;;;;0.80;0.40;;;17.80;99.90;;;;;;4976973;28;20038;-80
2022/05/27 07:19:35;;;;;;;2.08;0.52;;;;;;;;;;4980905;28;20039;-82
2022/05/27 07:22:02;;;;;;;0.55;0.40;;;17.60;99.90;;;;;;4965585;28;20042;-84
2022/05/27 07:24:28;;;;;;;0.80;0.60;;;18.20;99.90;;;;;;4964683;28;20027;-84
2022/05/27 07:26:54;;;;;;;0.52;0.40;;;18.90;99.90;;;;;;4977191;28;20035;-83
2022/05/27 07:29:20;;;;;;;1.13;1.02;;;;;;;;;;4963273;28;20504;-82
2022/05/27 07:31:46;;;;;;;0.50;0.40;;;18.80;99.90;;;;;;4965646;28;20027;-82
2022/05/27 07:34:12;;;;;;;1.67;0.50;;;19.20;99.90;;;;;;4969642;28;20039;-83
2022/05/27 07:36:38;;;;;;;0.93;0.43;;;19.10;99.90;;;;;;4974536;28;20023;-82
2022/05/27 07:39:04;;;;;;;0.70;0.55;;;;;;;;;;4993415;28;20062;-82
2022/05/27 07:41:30;;;;;;;0.52;0.40;;;18.80;99.90;;;;;;4974536;28;20023;-82
2022/05/27 07:43:59;;;;;;;1.13;0.57;;;;;;;;;;4967935;28;20057;-81
2022/05/27 07:46:25;;;;;;;0.50;0.50;;;18.30;99.90;;;;;;4965271;28;20019;-81
2022/05/27 07:48:51;;;;;;;0.30;0.30;;;18.30;99.90;;;;;;4969635;28;20029;-81
2022/05/27 07:51:17;;;;;;;3.42;1.13;;;18.60;99.90;;;;;;4964768;28;20027;-82
2022/05/27 07:53:43;;;;;;;0.90;0.70;;;18.50;99.90;;;;;;4971639;28;20023;-81
2022/05/27 07:56:10;;;;;;;2.80;0.65;;;18.60;99.90;;;;;;4976960;28;20030;-81
2022/05/27 07:58:36;;;;;;;0.43;0.43;;;19.00;99.90;;;;;;4967477;28;20030;-81
2022/05/27 08:01:03;;;;;;;1.75;0.40;;;20.10;99.90;;;;;;4980573;28;20163;-81
2022/05/27 08:03:29;;;;;;;0.50;0.50;;;20.10;99.90;;;;;;4959561;28;20019;-84
2022/05/27 08:05:57;;;;;;;4.20;0.52;;;20.70;99.90;;;;;;4954563;28;20037;-82
2022/05/27 08:08:23;;;;;;;2.20;0.50;;;19.70;99.90;;;;;;4953343;28;20042;-78
2022/05/27 08:10:49;;;;;;;0.50;0.40;;;19.70;99.90;;;;;;4972254;28;20023;-82
2022/05/27 08:13:15;;;;;;;1.80;0.50;;;;;;;;;;4984229;28;20034;-80
2022/05/27 08:15:42;;;;;;;0.50;0.50;;;18.70;99.90;;;;;;4957070;29;20020;-80
2022/05/27 08:18:08;;;;;;;1.17;0.40;;;18.60;99.90;;;;;;4984962;28;20026;-84
2022/05/27 08:20:36;;;;;;;1.08;0.35;;;19.00;99.90;;;;;;4989842;28;20024;-83
2022/05/27 08:23:02;;;;;;;0.50;0.50;;;19.20;99.90;;;;;;4991582;28;20027;-83
2022/05/27 08:25:29;;;;;;;0.60;0.45;;;19.50;99.90;;;;;;4978224;28;20047;-83
2022/05/27 08:27:55;;;;;;;0.43;0.40;;;19.40;99.90;;;;;;4974565;28;20023;-88
2022/05/27 08:30:33;;;;;;;0.80;0.40;;;19.90;99.90;;;;;;4967510;28;20106;-88
2022/05/27 08:32:59;;;;;;;0.45;0.40;;;19.90;99.90;;;;;;4968247;28;20029;-86
2022/05/27 08:38:28;;;;;;;1.75;0.40;;;19.40;99.90;;;;;;4958625;29;20501;-87
2022/05/27 08:41:25;;;;;;;0.40;0.30;;;19.40;99.90;;;;;;4970842;28;20471;-83
2022/05/27 08:44:08;;;;;;;1.70;0.30;;;19.20;99.90;;;;;;4977908;28;20035;-83
2022/05/27 08:46:45;;;;;;;1.48;0.50;;;18.90;99.90;;;;;;4994756;28;20412;-83
2022/05/27 08:49:21;;;;;;;0.88;0.50;;;19.00;99.90;;;;;;4997403;28;20040;-82
2022/05/27 08:52:07;;;;;;;1.83;0.60;;;19.30;99.90;;;;;;4974963;28;20295;-85
2022/05/27 08:54:39;;;;;;;1.88;0.75;;;19.50;99.90;;;;;;4981455;28;20023;-83
2022/05/27 09:00:14;;;;;;;1.33;0.70;;;19.00;99.90;;;;;;4982696;28;20202;-79
2022/05/27 09:02:46;;;;;;;0.55;0.43;;;19.40;99.90;;;;;;4969012;28;20043;-81
2022/05/27 09:05:49;;;;;;;1.38;0.40;;;19.50;99.90;;;;;;4980236;28;20091;-79
2022/05/27 09:08:24;;;;;;;1.10;0.60;;;19.00;99.90;;;;;;4971856;28;20076;-79
2022/05/27 09:10:59;;;;;;;0.93;0.45;;;19.20;99.90;;;;;;4977569;28;20072;-80
2022/05/27 09:13:45;;;;;;;0.88;0.32;;;;;;;;;;4973350;28;20072;-79
2022/05/27 09:16:20;;;;;;;1.90;0.50;;;20.00;99.90;;;;;;4971700;28;20062;-80
2022/05/27 09:18:48;;;;;;;0.45;0.40;;;20.80;99.90;;;;;;4972909;28;20034;-80
2022/05/27 09:21:33;;;;;;;1.90;0.40;;;21.30;98.80;;;;;;4971941;28;20117;-80
2022/05/27 09:24:12;;;;;;;0.73;0.40;;;20.90;98.40;;;;;;4978556;28;20062;-79
2022/05/27 09:26:54;;;;;;;2.53;0.50;;;20.20;99.90;;;;;;4980137;28;20023;-79
2022/05/27 09:29:42;;;;;;;0.40;0.40;;;19.50;99.90;;;;;;4977701;28;20027;-82
2022/05/27 09:32:25;;;;;;;0.52;0.35;;;19.40;99.90;;;;;;4969654;28;20031;-79
2022/05/27 09:34:55;;;;;;;2.10;0.50;;;19.10;99.90;;;;;;4973269;28;20023;-79
2022/05/27 09:37:29;;;;;;;0.55;0.47;;;18.70;99.90;;;;;;4976880;28;20027;-79
2022/05/27 09:40:04;;;;;;;1.25;0.57;;;18.90;99.90;;;;;;4992190;28;20023;-79
2022/05/27 09:42:35;;;;;;;1.60;0.43;;;19.30;99.90;;;;;;4973324;28;20090;-85
2022/05/27 09:45:01;;;;;;;1.65;0.40;;;19.70;99.90;;;;;;4974360;28;20187;-80
2022/05/27 09:47:36;;;;;;;0.50;0.50;;;20.20;99.90;;;;;;4966584;28;20023;-81
2022/05/27 09:50:19;;;;;;;1.20;0.40;;;20.70;99.90;;;;;;4969670;28;20165;-82
2022/05/27 09:52:48;;;;;;;0.65;0.63;;;20.10;99.90;;;;;;4972151;28;20092;-80
2022/05/27 09:55:31;;;;;;;0.75;0.47;;;20.30;99.90;;;;;;4988755;28;20078;-80
2022/05/27 09:58:02;;;;;;;4.78;1.23;;;19.90;99.90;;;;;;4970357;28;20055;-79
2022/05/27 10:00:41;;;;;;;1.48;0.60;;;19.60;99.90;;;;;;4984382;28;20103;-79
2022/05/27 10:03:19;;;;;;;0.38;0.38;;;19.20;99.90;;;;;;4980303;28;20119;-78
2022/05/27 10:06:00;;;;;;;4.97;0.57;;;19.30;99.90;;;;;;4985118;28;20229;-79
2022/05/27 10:08:53;;;;;;;0.90;0.82;;;19.00;99.90;;;;;;4978796;28;20027;-79
2022/05/27 10:11:32;;;;;;;1.23;0.52;;;19.00;99.90;;;;;;4976415;28;20039;-79
2022/05/27 10:14:19;;;;;;;0.52;0.47;;;19.00;99.90;;;;;;4984171;28;20027;-79
2022/05/27 10:17:01;;;;;;;0.75;0.40;;;19.50;99.90;;;;;;4979332;28;20027;-79
2022/05/27 10:19:28;;;;;;;0.30;0.30;;;19.60;99.90;;;;;;4973125;28;20034;-79
2022/05/27 10:22:00;;;;;;;1.90;0.60;;;19.40;99.90;;;;;;4977045;28;20222;-82
2022/05/27 10:24:30;;;;;;;0.40;0.30;;;19.50;99.90;;;;;;4974073;28;20026;-85
2022/05/27 10:27:05;;;;;;;0.82;0.40;;;19.40;99.90;;;;;;4976421;28;20102;-79
2022/05/27 10:29:47;;;;;;;1.75;0.65;;;19.50;99.90;;;;;;4974343;28;20015;-79
2022/05/27 10:32:31;;;;;;;1.15;0.60;;;19.30;99.90;;;;;;4978230;28;20304;-78
2022/05/27 10:34:59;;;;;;;0.30;0.30;;;19.40;99.90;;;;;;4972723;28;20038;-79
2022/05/27 10:37:33;;;;;;;0.20;0.20;;;19.70;99.90;;;;;;4976523;28;20037;-79
2022/05/27 10:40:12;;;;;;;0.43;0.40;;;20.10;99.90;;;;;;4989847;28;20042;-85
2022/05/27 10:42:52;;;;;;;0.77;0.47;;;20.20;99.90;;;;;;4972401;28;20503;-80
2022/05/27 10:45:22;;;;;;;0.82;0.45;;;19.90;99.90;;;;;;4966176;28;20506;-79
2022/05/27 10:48:04;;;;;;;0.55;0.55;;;19.80;99.90;;;;;;4990304;28;20034;-80
2022/05/27 10:50:33;;;;;;;0.38;0.38;;;19.70;99.90;;;;;;4980134;28;20082;-78
2022/05/27 10:53:07;;;;;;;1.70;0.57;;;19.50;99.90;;;;;;4965941;28;20110;-83
2022/05/27 10:56:10;;;;;;;0.38;0.38;;;19.50;99.90;;;;;;4963816;28;20368;-80
2022/05/27 11:02:12;;;;;;;0.40;0.40;;;19.90;99.90;;;;;;4959013;29;20142;-79
2022/05/27 11:04:45;;;;;;;0.73;0.50;;;20.10;99.90;;;;;;4949844;29;20484;-80
2022/05/27 11:07:29;;;;;;;0.70;0.40;;;20.60;99.90;;;;;;4951411;28;20178;-79
2022/05/27 11:10:32;;;;;;;0.30;0.30;;;20.40;99.90;;;;;;4951140;28;20024;-79
2022/05/27 11:16:40;;;;;;;0.50;0.50;;;20.60;99.90;;;;;;4953219;28;20033;-78
2022/05/27 11:19:18;;;;;;;0.55;0.30;;;20.30;99.90;;;;;;4954991;29;20518;-82
2022/05/27 11:22:11;;;;;;;3.58;0.50;;;20.60;99.90;;;;;;4953980;28;20171;-80
2022/05/27 11:24:57;;;;;;;1.48;0.30;;;20.70;99.90;;;;;;4951686;28;20082;-80
2022/05/27 11:27:33;;;;;;;1.65;0.55;;;20.80;99.90;;;;;;4946593;29;20050;-80
2022/05/27 11:30:02;;;;;;;0.40;0.40;;;20.80;99.90;;;;;;4950982;29;20030;-80
2022/05/27 11:32:53;;;;;;;0.40;0.40;;;21.10;99.90;;;;;;4950770;29;20039;-79
2022/05/27 11:35:37;;;;;;;2.38;0.52;;;21.70;96.10;;;;;;4951906;28;20042;-83
2022/05/27 11:38:28;;;;;;;0.55;0.30;;;21.10;99.90;;;;;;4951502;29;20031;-80
2022/05/27 11:40:56;;;;;;;2.20;0.50;;;20.50;99.90;;;;;;4949910;29;20027;-81
2022/05/27 11:43:43;;;;;;;0.80;0.50;;;20.30;99.90;;;;;;4968354;28;20010;-80
2022/05/27 11:46:24;;;;;;;0.50;0.50;;;20.00;99.90;;;;;;4970009;28;20447;-82
2022/05/27 11:49:11;;;;;;;1.15;0.65;;;20.60;99.90;;;;;;4965457;28;20035;-81
2022/05/27 11:51:55;;;;;;;0.90;0.70;;;21.60;98.20;;;;;;4985932;28;20035;-80
2022/05/27 11:55:01;;;;;;;1.85;0.45;;;20.80;99.90;;;;;;4972402;28;20101;-84
2022/05/27 11:57:50;;;;;;;0.38;0.38;;;20.80;99.90;;;;;;4938092;28;20031;-80
2022/05/27 12:00:22;;;;;;;0.63;0.50;;;22.40;92.50;;;;;;4955533;28;20089;-80
2022/05/27 12:03:04;;;;;;;1.63;0.40;;;22.60;82.60;;;;;;4963449;28;20055;-85
2022/05/27 12:05:49;;;;;;;0.80;0.40;;;23.10;76.60;;;;;;4971672;28;20373;-82
2022/05/27 12:08:33;;;;;;;1.50;0.43;;;23.20;78.10;;;;;;4969375;28;20015;-79
2022/05/27 12:11:15;;;;;;;1.15;0.77;;;22.60;72.90;;;;;;4968185;28;20042;-78
2022/05/27 12:14:04;;;;;;;0.63;0.57;;;22.20;79.00;;;;;;4969128;28;20058;-80
2022/05/27 12:16:37;;;;;;;2.13;0.60;;;21.50;99.90;;;;;;4968942;28;20035;-85
2022/05/27 12:19:24;;;;;;;0.40;0.40;;;21.60;96.20;;;;;;4970691;28;20073;-86
2022/05/27 12:22:16;;;;;;;0.70;0.40;;;22.80;81.40;;;;;;4974425;28;20034;-79
2022/05/27 12:25:00;;;;;;;0.75;0.40;;;23.40;72.30;;;;;;4976090;28;20479;-89
2022/05/27 12:27:26;;;;;;;0.35;0.30;;;22.60;67.90;;;;;;4977021;28;20337;-83
2022/05/27 12:29:52;;;;;;;0.73;0.32;;;22.20;77.70;;;;;;4980105;28;20027;-76
2022/05/27 12:32:22;;;;;;;1.13;0.47;;;23.10;76.10;;;;;;4973504;28;20119;-75
2022/05/27 12:34:48;;;;;;;;;;;23.00;63.80;;;;;;4975361;28;20524;-79
2022/05/27 12:37:28;;;;;;;2.25;0.40;;;22.90;66.60;;;;;;4970111;28;19906;-78
2022/05/27 12:40:21;;;;;;;0.80;0.30;;;22.30;73.30;;;;;;4972211;28;20019;-77
2022/05/27 12:42:56;;;;;;;1.38;0.65;;;21.40;85.40;;;;;;4972602;28;20050;-77
2022/05/27 12:45:47;;;;;;;1.38;0.50;;;21.50;91.10;;;;;;4974922;28;20027;-77
2022/05/27 12:48:43;;;;;;;0.40;0.40;;;22.30;82.20;;;;;;4975458;28;20049;-86
2022/05/27 12:51:15;;;;;;;1.85;0.65;;;22.80;67.40;;;;;;4973729;28;20455;-80
2022/05/27 12:53:59;;;;;;;2.58;0.60;;;22.50;69.10;;;;;;4972365;28;20019;-80
2022/05/27 13:02:14;;;;;;;1.92;0.30;;;24.60;60.70;;;;;;4972237;28;20145;-79
2022/05/27 13:04:48;;;;;;;1.38;0.30;;;24.50;61.20;;;;;;4994690;28;20019;-81
2022/05/27 13:07:40;;;;;;;0.70;0.50;;;23.40;62.10;;;;;;4976260;28;20065;-77
2022/05/27 13:10:18;;;;;;;1.10;0.40;;;22.70;69.60;;;;;;4965212;28;20031;-85
2022/05/27 13:13:01;;;;;;;0.35;0.30;;;21.90;85.50;;;;;;4954707;28;20853;-92
2022/05/27 13:15:53;;;;;;;0.47;0.30;;;23.50;76.20;;;;;;4965939;28;20051;-78
2022/05/27 13:18:37;;;;;;;0.50;0.50;;;21.90;76.40;;;;;;4962588;28;20074;-77
2022/05/27 13:21:18;;;;;;;0.68;0.28;;;23.00;67.10;;;;;;4963252;28;20159;-79
2022/05/27 13:24:03;;;;;;;0.68;0.35;;;23.60;66.90;;;;;;4953357;28;20547;-77
2022/05/27 13:26:40;;;;;;;5.90;1.75;;;24.50;61.20;;;;;;4950337;28;20039;-77
2022/05/27 13:29:36;;;;;;;0.40;0.38;;;24.30;59.50;;;;;;4948962;29;20360;-76
2022/05/27 13:32:02;;;;;;;4.75;1.33;;;24.30;61.20;;;;;;4949715;28;20118;-78
2022/05/27 13:35:06;;;;;;;1.15;0.60;;;24.50;59.40;;;;;;4949808;28;20169;-78
2022/05/27 13:37:38;;;;;;;5.07;0.85;;;24.60;59.10;;;;;;4940143;28;20050;-77
2022/05/27 13:40:10;;;;;;;0.93;0.32;;;23.60;61.30;;;;;;4950268;28;20431;-78
2022/05/27 13:42:42;;;;;;;0.73;0.63;;;23.10;62.10;;;;;;4950822;28;20023;-79
2022/05/27 13:45:32;;;;;;;1.35;0.50;;;22.90;63.40;;;;;;4948970;29;20031;-80
2022/05/27 13:48:09;;;;;;;2.53;0.50;;;22.50;63.80;;;;;;4953793;29;20038;-77
2022/05/27 13:50:38;;;;;;;0.40;0.30;;;23.10;63.30;;;;;;4973512;28;20240;-78
2022/05/27 13:53:25;;;;;;;1.00;0.30;;;23.40;60.90;;;;;;4963071;28;20046;-77
2022/05/27 13:56:13;;;;;;;1.48;0.47;;;24.00;60.60;;;;;;4953045;28;20036;-77
2022/05/27 13:59:12;;;;;;;0.80;0.30;;;24.10;60.90;;;;;;4952759;28;20129;-79